createdAt,value
2018-07-26T00:01:01.894Z,24.11
2018-07-26T00:03:28.920Z,24.08
2018-07-26T00:05:56.009Z,24.06
2018-07-26T00:08:22.969Z,24.05
2018-07-26T00:10:50.061Z,24.03
2018-07-26T00:13:17.072Z,24.03
2018-07-26T00:15:44.084Z,24.01
2018-07-26T00:18:11.085Z,24.01
2018-07-26T00:20:38.057Z,24.00
2018-07-26T00:23:05.301Z,23.98
2018-07-26T00:25:32.348Z,23.96
2018-07-26T00:27:59.329Z,23.96
2018-07-26T00:30:26.349Z,23.95
2018-07-26T00:32:53.387Z,23.92
2018-07-26T00:35:20.373Z,23.93
2018-07-26T00:37:47.345Z,23.93
2018-07-26T00:40:14.348Z,23.92
2018-07-26T00:42:41.336Z,23.92
2018-07-26T00:45:08.345Z,23.89
2018-07-26T00:47:35.432Z,23.86
2018-07-26T00:50:02.586Z,23.85
2018-07-26T00:52:29.586Z,23.85
2018-07-26T00:54:56.609Z,23.83
2018-07-26T00:57:23.877Z,23.79
2018-07-26T00:59:50.846Z,23.76
2018-07-26T01:02:17.849Z,23.73
2018-07-26T01:04:44.905Z,23.70
2018-07-26T01:07:12.258Z,23.69
2018-07-26T01:09:39.348Z,23.66
2018-07-26T01:12:06.457Z,23.65
2018-07-26T01:14:33.582Z,23.62
2018-07-26T01:17:00.570Z,23.59
2018-07-26T01:19:27.613Z,23.55
2018-07-26T01:21:54.618Z,23.51
2018-07-26T01:24:21.649Z,23.47
2018-07-26T01:26:48.652Z,23.45
2018-07-26T01:29:18.888Z,23.42
2018-07-26T01:31:45.974Z,23.38
2018-07-26T01:34:12.948Z,23.36
2018-07-26T01:36:39.969Z,23.33
2018-07-26T01:39:07.757Z,23.29
2018-07-26T01:41:34.709Z,23.25
2018-07-26T01:44:13.141Z,23.24
2018-07-26T01:46:40.145Z,23.22
2018-07-26T01:49:07.176Z,23.22
2018-07-26T01:51:34.173Z,23.19
2018-07-26T01:54:01.429Z,23.16
2018-07-26T01:56:28.428Z,23.17
2018-07-26T01:58:55.389Z,23.16
2018-07-26T02:01:22.362Z,23.15
2018-07-26T02:03:49.456Z,23.14
2018-07-26T02:06:16.542Z,23.13
2018-07-26T02:08:43.525Z,23.11
2018-07-26T02:11:10.509Z,23.06
2018-07-26T02:13:37.493Z,23.06
2018-07-26T02:16:04.481Z,23.07
2018-07-26T02:18:31.503Z,23.10
2018-07-26T02:20:58.521Z,23.11
2018-07-26T02:23:25.580Z,23.12
2018-07-26T02:25:52.956Z,23.10
2018-07-26T02:28:19.937Z,23.08
2018-07-26T02:30:46.953Z,23.06
2018-07-26T02:33:14.110Z,23.04
2018-07-26T02:35:41.136Z,23.01
2018-07-26T02:38:08.789Z,22.99
2018-07-26T02:40:35.813Z,22.97
2018-07-26T02:43:02.847Z,22.96
2018-07-26T02:45:29.834Z,22.93
2018-07-26T02:47:57.033Z,22.91
2018-07-26T02:50:24.049Z,22.89
2018-07-26T02:52:51.005Z,22.87
2018-07-26T02:55:18.006Z,22.84
2018-07-26T02:57:45.006Z,22.81
2018-07-26T03:00:12.007Z,22.76
2018-07-26T03:02:39.110Z,22.74
2018-07-26T03:05:06.627Z,22.73
2018-07-26T03:07:33.684Z,22.71
2018-07-26T03:10:00.661Z,22.68
2018-07-26T03:12:27.661Z,22.65
2018-07-26T03:14:54.630Z,22.63
2018-07-26T03:17:21.662Z,22.61
2018-07-26T03:19:48.657Z,22.57
2018-07-26T03:22:15.689Z,22.53
2018-07-26T03:24:42.681Z,22.50
2018-07-26T03:27:10.244Z,22.45
2018-07-26T03:29:37.238Z,22.43
2018-07-26T03:32:04.237Z,22.41
2018-07-26T03:34:31.192Z,22.40
2018-07-26T03:36:58.182Z,22.38
2018-07-26T03:39:25.205Z,22.37
2018-07-26T03:41:52.225Z,22.35
2018-07-26T03:44:19.213Z,22.34
2018-07-26T03:46:46.261Z,22.31
2018-07-26T03:49:13.277Z,22.28
2018-07-26T03:51:40.264Z,22.28
2018-07-26T03:54:07.237Z,22.28
2018-07-26T03:56:34.270Z,22.26
2018-07-26T03:59:01.370Z,22.24
2018-07-26T04:01:28.358Z,22.25
2018-07-26T04:03:55.342Z,22.27
2018-07-26T04:06:22.624Z,22.29
2018-07-26T04:08:49.621Z,22.30
2018-07-26T04:11:16.622Z,22.29
2018-07-26T04:13:43.584Z,22.30
2018-07-26T04:16:10.613Z,22.32
2018-07-26T04:18:37.617Z,22.34
2018-07-26T04:21:04.617Z,22.37
2018-07-26T04:23:31.646Z,22.40
2018-07-26T04:25:58.656Z,22.43
2018-07-26T04:28:25.645Z,22.46
2018-07-26T04:30:52.693Z,22.50
2018-07-26T04:33:19.690Z,22.51
2018-07-26T04:35:46.669Z,22.52
2018-07-26T04:38:13.677Z,22.53
2018-07-26T04:40:40.669Z,22.58
2018-07-26T04:43:07.721Z,22.61
2018-07-26T04:45:34.701Z,22.65
2018-07-26T04:48:01.693Z,22.65
2018-07-26T04:50:28.644Z,22.69
2018-07-26T04:52:55.730Z,22.72
2018-07-26T04:55:22.697Z,22.76
2018-07-26T04:57:49.688Z,22.80
2018-07-26T05:00:16.761Z,22.84
2018-07-26T05:02:43.760Z,22.88
2018-07-26T05:05:10.716Z,22.90
2018-07-26T05:07:37.904Z,22.95
2018-07-26T05:10:04.975Z,23.01
2018-07-26T05:12:32.324Z,23.07
2018-07-26T05:14:59.547Z,23.13
2018-07-26T05:17:26.549Z,23.18
2018-07-26T05:19:53.584Z,23.24
2018-07-26T05:22:20.570Z,23.29
2018-07-26T05:24:47.585Z,23.34
2018-07-26T05:27:14.837Z,23.39
2018-07-26T05:29:41.812Z,23.45
2018-07-26T05:32:08.879Z,23.51
2018-07-26T05:34:36.025Z,23.56
2018-07-26T05:37:03.049Z,23.62
2018-07-26T05:39:30.085Z,23.67
2018-07-26T05:41:57.129Z,23.73
2018-07-26T05:44:24.093Z,23.79
2018-07-26T05:46:51.052Z,23.84
2018-07-26T05:49:18.149Z,23.90
2018-07-26T05:51:45.173Z,23.95
2018-07-26T05:54:12.170Z,24.02
2018-07-26T05:56:39.174Z,24.06
2018-07-26T05:59:06.181Z,24.12
2018-07-26T06:01:33.339Z,24.18
2018-07-26T06:04:00.337Z,24.22
2018-07-26T06:06:27.354Z,24.27
2018-07-26T06:08:54.344Z,24.32
2018-07-26T06:11:21.325Z,24.38
2018-07-26T06:13:48.353Z,24.44
2018-07-26T06:16:15.354Z,24.50
2018-07-26T06:18:42.501Z,24.56
2018-07-26T06:21:09.601Z,24.62
2018-07-26T06:23:36.583Z,24.68
2018-07-26T06:26:04.164Z,24.78
2018-07-26T06:28:31.188Z,24.84
2018-07-26T06:30:58.331Z,24.92
2018-07-26T06:33:25.373Z,25.04
2018-07-26T06:35:52.316Z,25.14
2018-07-26T06:38:19.290Z,25.25
2018-07-26T06:40:46.256Z,25.30
2018-07-26T06:43:13.264Z,25.40
2018-07-26T06:45:40.230Z,25.49
2018-07-26T06:48:07.437Z,25.59
2018-07-26T06:50:34.445Z,25.66
2018-07-26T06:53:01.528Z,25.74
2018-07-26T06:55:28.460Z,25.81
2018-07-26T06:57:55.434Z,25.87
2018-07-26T07:00:22.404Z,25.89
2018-07-26T07:02:49.434Z,25.93
2018-07-26T07:05:16.416Z,26.01
2018-07-26T07:07:43.392Z,26.09
2018-07-26T07:10:10.453Z,26.18
2018-07-26T07:12:37.421Z,26.32
2018-07-26T07:15:04.690Z,26.38
2018-07-26T07:17:31.693Z,26.44
2018-07-26T07:19:58.773Z,26.58
2018-07-26T07:22:25.755Z,26.69
2018-07-26T07:24:52.817Z,26.66
2018-07-26T07:27:19.793Z,26.85
2018-07-26T07:29:47.518Z,26.89
2018-07-26T07:32:14.524Z,26.93
2018-07-26T07:34:42.046Z,26.99
2018-07-26T07:37:09.073Z,27.08
2018-07-26T07:39:36.064Z,27.15
2018-07-26T07:42:03.098Z,27.23
2018-07-26T07:44:30.101Z,27.35
2018-07-26T07:46:57.069Z,27.39
2018-07-26T07:49:24.101Z,27.52
2018-07-26T07:51:51.117Z,27.60
2018-07-26T07:54:18.141Z,27.62
2018-07-26T07:56:45.114Z,27.66
2018-07-26T07:59:12.264Z,27.74
2018-07-26T08:01:39.232Z,27.78
2018-07-26T08:04:06.248Z,27.81
2018-07-26T08:06:33.236Z,27.88
2018-07-26T08:09:00.213Z,27.91
2018-07-26T08:11:27.190Z,28.00
2018-07-26T08:13:54.202Z,28.08
2018-07-26T08:16:21.257Z,28.18
2018-07-26T08:18:48.343Z,28.27
2018-07-26T08:21:15.370Z,28.37
2018-07-26T08:23:42.341Z,28.45
2018-07-26T08:26:09.331Z,28.51
2018-07-26T08:28:36.386Z,28.61
2018-07-26T08:31:03.459Z,28.71
2018-07-26T08:33:30.500Z,28.79
2018-07-26T08:35:57.453Z,28.86
2018-07-26T08:38:24.549Z,28.94
2018-07-26T08:40:51.557Z,29.07
2018-07-26T08:43:18.522Z,29.13
2018-07-26T08:45:45.545Z,29.24
2018-07-26T08:48:12.606Z,29.33
2018-07-26T08:50:39.596Z,29.42
2018-07-26T08:53:06.605Z,29.47
2018-07-26T08:55:33.733Z,29.51
2018-07-26T08:58:00.758Z,29.57
2018-07-26T09:00:27.775Z,29.64
2018-07-26T09:02:54.760Z,29.70
2018-07-26T09:05:22.122Z,29.79
2018-07-26T09:07:49.129Z,29.84
2018-07-26T09:10:16.339Z,29.90
2018-07-26T09:12:43.345Z,29.96
2018-07-26T09:15:10.393Z,30.02
2018-07-26T09:17:37.393Z,30.10
2018-07-26T09:20:05.009Z,30.13
2018-07-26T09:22:32.121Z,30.17
2018-07-26T09:24:59.142Z,30.30
2018-07-26T09:27:26.145Z,30.38
2018-07-26T09:29:53.130Z,30.41
2018-07-26T09:32:20.214Z,30.44
2018-07-26T09:34:47.192Z,30.50
2018-07-26T09:37:14.167Z,30.59
2018-07-26T09:39:41.332Z,30.69
2018-07-26T09:42:08.373Z,30.79
2018-07-26T09:44:35.425Z,30.87
2018-07-26T09:47:02.407Z,30.88
2018-07-26T09:49:29.420Z,30.93
2018-07-26T09:51:56.569Z,30.95
2018-07-26T09:54:23.554Z,30.98
2018-07-26T09:56:50.615Z,31.01
2018-07-26T09:59:17.610Z,31.10
2018-07-26T10:01:44.599Z,31.14
2018-07-26T10:04:11.576Z,31.21
2018-07-26T10:06:38.748Z,31.32
2018-07-26T10:09:08.466Z,31.34
2018-07-26T10:11:35.480Z,31.40
2018-07-26T10:14:02.475Z,31.42
2018-07-26T10:16:29.482Z,31.51
2018-07-26T10:18:56.445Z,31.59
2018-07-26T10:21:23.583Z,31.64
2018-07-26T10:23:50.580Z,31.71
2018-07-26T10:26:17.577Z,31.78
2018-07-26T10:28:44.623Z,31.80
2018-07-26T10:31:11.613Z,31.93
2018-07-26T10:33:38.604Z,32.01
2018-07-26T10:36:05.650Z,32.04
2018-07-26T10:38:32.637Z,32.11
2018-07-26T10:40:59.809Z,32.14
2018-07-26T10:43:26.885Z,32.20
2018-07-26T10:45:54.025Z,32.21
2018-07-26T10:48:20.981Z,32.24
2018-07-26T10:50:48.029Z,32.28
2018-07-26T10:53:15.133Z,32.29
2018-07-26T10:55:42.129Z,32.29
2018-07-26T10:58:09.104Z,32.28
2018-07-26T11:00:36.131Z,32.34
2018-07-26T11:03:03.165Z,32.40
2018-07-26T11:05:30.173Z,32.43
2018-07-26T11:07:57.248Z,32.51
2018-07-26T11:10:24.389Z,32.56
2018-07-26T11:12:51.380Z,32.55
2018-07-26T11:15:25.214Z,32.60
2018-07-26T11:17:52.193Z,32.67
2018-07-26T11:20:19.552Z,32.70
2018-07-26T11:22:46.738Z,32.75
2018-07-26T11:25:13.720Z,32.82
2018-07-26T11:27:40.730Z,32.87
2018-07-26T11:30:07.745Z,32.85
2018-07-26T11:32:34.761Z,32.89
2018-07-26T11:35:01.825Z,32.89
2018-07-26T11:37:29.020Z,32.96
2018-07-26T11:39:56.081Z,32.96
2018-07-26T11:42:23.085Z,32.96
2018-07-26T11:44:50.076Z,32.99
2018-07-26T11:47:17.712Z,33.12
2018-07-26T11:49:44.877Z,33.27
2018-07-26T11:52:11.910Z,33.37
2018-07-26T11:54:38.889Z,33.47
2018-07-26T11:57:05.885Z,33.43
2018-07-26T11:59:32.926Z,33.39
2018-07-26T12:01:59.920Z,33.44
2018-07-26T12:04:26.901Z,33.52
2018-07-26T12:06:54.242Z,33.62
2018-07-26T12:09:21.273Z,33.67
2018-07-26T12:11:48.260Z,33.73
2018-07-26T12:14:15.285Z,33.87
2018-07-26T12:16:42.290Z,33.94
2018-07-26T12:19:09.255Z,34.03
2018-07-26T12:21:36.289Z,34.06
2018-07-26T12:24:03.305Z,34.09
2018-07-26T12:26:30.367Z,34.04
2018-07-26T12:28:57.433Z,34.10
2018-07-26T12:31:24.597Z,34.14
2018-07-26T12:33:51.581Z,34.05
2018-07-26T12:36:18.606Z,34.08
2018-07-26T12:38:45.590Z,34.06
2018-07-26T12:41:12.683Z,34.09
2018-07-26T12:43:39.791Z,34.12
2018-07-26T12:46:06.798Z,34.17
2018-07-26T12:48:33.788Z,34.20
2018-07-26T12:51:01.197Z,34.25
2018-07-26T12:53:28.188Z,34.35
2018-07-26T12:55:55.201Z,34.26
2018-07-26T12:58:22.193Z,34.25
2018-07-26T13:00:49.781Z,34.26
2018-07-26T13:03:16.844Z,34.31
2018-07-26T13:05:43.857Z,34.33
2018-07-26T13:08:10.846Z,34.37
2018-07-26T13:10:37.859Z,34.44
2018-07-26T13:13:04.902Z,34.52
2018-07-26T13:15:32.053Z,34.65
2018-07-26T13:17:59.065Z,34.63
2018-07-26T13:20:26.300Z,34.75
2018-07-26T13:22:53.313Z,34.80
2018-07-26T13:25:20.312Z,34.85
2018-07-26T13:27:47.457Z,34.85
2018-07-26T13:30:14.457Z,34.70
2018-07-26T13:32:41.472Z,34.75
2018-07-26T13:35:08.476Z,34.83
2018-07-26T13:37:35.481Z,34.84
2018-07-26T13:40:02.715Z,34.91
2018-07-26T13:42:29.805Z,34.91
2018-07-26T13:44:56.840Z,34.93
2018-07-26T13:47:23.842Z,34.89
2018-07-26T13:49:50.809Z,34.94
2018-07-26T13:52:17.841Z,35.02
2018-07-26T13:54:44.821Z,35.00
2018-07-26T13:57:11.811Z,34.95
2018-07-26T13:59:38.797Z,34.98
2018-07-26T14:02:05.817Z,35.07
2018-07-26T14:04:32.849Z,35.10
2018-07-26T14:06:59.840Z,35.20
2018-07-26T14:09:26.852Z,35.30
2018-07-26T14:11:53.860Z,35.31
2018-07-26T14:14:21.113Z,35.28
2018-07-26T14:16:48.111Z,35.11
2018-07-26T14:19:15.117Z,35.00
2018-07-26T14:21:42.120Z,34.96
2018-07-26T14:24:14.992Z,34.92
2018-07-26T14:26:42.073Z,34.84
2018-07-26T14:29:09.085Z,34.84
2018-07-26T14:31:36.073Z,34.85
2018-07-26T14:34:03.105Z,34.84
2018-07-26T14:36:30.082Z,34.86
2018-07-26T14:38:57.084Z,34.85
2018-07-26T14:41:24.069Z,34.78
2018-07-26T14:43:51.093Z,34.70
2018-07-26T14:46:18.432Z,34.64
2018-07-26T14:48:45.433Z,34.60
2018-07-26T14:51:12.446Z,34.51
2018-07-26T14:53:39.445Z,34.45
2018-07-26T14:56:06.449Z,34.38
2018-07-26T14:58:33.445Z,34.32
2018-07-26T15:01:00.506Z,34.28
2018-07-26T15:03:27.448Z,34.29
2018-07-26T15:05:54.430Z,34.28
2018-07-26T15:08:21.413Z,34.30
2018-07-26T15:10:48.452Z,34.24
2018-07-26T15:13:15.493Z,34.22
2018-07-26T15:15:42.477Z,34.22
2018-07-26T15:18:09.556Z,34.18
2018-07-26T15:20:36.656Z,34.11
2018-07-26T15:23:03.640Z,34.14
2018-07-26T15:25:30.600Z,34.18
2018-07-26T15:27:57.617Z,34.09
2018-07-26T15:30:24.653Z,34.10
2018-07-26T15:32:52.650Z,34.05
2018-07-26T15:35:19.657Z,34.01
2018-07-26T15:37:47.202Z,33.98
2018-07-26T15:40:14.208Z,33.98
2018-07-26T15:42:41.176Z,33.94
2018-07-26T15:45:08.529Z,33.82
2018-07-26T15:47:35.497Z,33.76
2018-07-26T15:50:02.629Z,33.73
2018-07-26T15:52:29.648Z,33.70
2018-07-26T15:54:56.665Z,33.69
2018-07-26T15:57:23.917Z,33.73
2018-07-26T15:59:50.985Z,33.73
2018-07-26T16:02:18.036Z,33.65
2018-07-26T16:04:45.693Z,33.59
2018-07-26T16:07:12.761Z,33.56
2018-07-26T16:09:39.728Z,33.51
2018-07-26T16:12:06.811Z,33.45
2018-07-26T16:14:34.029Z,33.40
2018-07-26T16:17:01.072Z,33.37
2018-07-26T16:19:28.073Z,33.37
2018-07-26T16:21:55.232Z,33.34
2018-07-26T16:24:22.254Z,33.33
2018-07-26T16:26:49.317Z,33.30
2018-07-26T16:29:16.323Z,33.23
2018-07-26T16:31:43.336Z,33.21
2018-07-26T16:34:10.505Z,33.18
2018-07-26T16:36:37.453Z,33.18
2018-07-26T16:39:07.393Z,33.13
2018-07-26T16:41:35.389Z,33.09
2018-07-26T16:44:02.663Z,33.06
2018-07-26T16:46:30.594Z,33.03
2018-07-26T16:48:57.629Z,33.01
2018-07-26T16:51:24.661Z,33.00
2018-07-26T16:53:51.708Z,32.97
2018-07-26T16:56:18.839Z,32.95
2018-07-26T16:58:45.906Z,32.91
2018-07-26T17:01:12.893Z,32.88
2018-07-26T17:03:39.905Z,32.86
2018-07-26T17:06:06.973Z,32.83
2018-07-26T17:08:33.953Z,32.82
2018-07-26T17:11:01.090Z,32.83
2018-07-26T17:13:28.292Z,32.79
2018-07-26T17:15:55.357Z,32.79
2018-07-26T17:18:22.989Z,32.73
2018-07-26T17:20:50.117Z,32.70
2018-07-26T17:23:17.140Z,32.71
2018-07-26T17:25:44.298Z,32.65
2018-07-26T17:28:12.385Z,32.67
2018-07-26T17:30:39.582Z,32.64
2018-07-26T17:33:06.989Z,32.59
2018-07-26T17:35:34.013Z,32.58
2018-07-26T17:38:01.579Z,32.58
2018-07-26T17:40:29.157Z,32.53
2018-07-26T17:42:56.163Z,32.48
2018-07-26T17:45:23.249Z,32.49
2018-07-26T17:47:50.277Z,32.48
2018-07-26T17:50:17.355Z,32.44
2018-07-26T17:52:44.429Z,32.40
2018-07-26T17:55:12.141Z,32.40
2018-07-26T17:57:39.686Z,32.37
2018-07-26T18:00:08.714Z,32.40
2018-07-26T18:02:35.781Z,32.43
2018-07-26T18:05:03.058Z,32.38
2018-07-26T18:07:30.053Z,32.43
2018-07-26T18:09:57.056Z,32.43
2018-07-26T18:12:24.056Z,32.37
2018-07-26T18:14:51.055Z,32.33
2018-07-26T18:17:18.727Z,32.32
2018-07-26T18:19:46.115Z,32.24
2018-07-26T18:22:13.849Z,32.20
2018-07-26T18:24:40.905Z,32.14
2018-07-26T18:27:08.072Z,32.04
2018-07-26T18:29:35.277Z,31.99
2018-07-26T18:32:02.348Z,31.91
2018-07-26T18:34:29.439Z,31.84
2018-07-26T18:36:56.465Z,31.78
2018-07-26T18:39:23.464Z,31.71
2018-07-26T18:41:50.480Z,31.58
2018-07-26T18:44:17.437Z,31.47
2018-07-26T18:46:44.417Z,31.41
2018-07-26T18:49:11.880Z,31.32
2018-07-26T18:51:38.881Z,31.19
2018-07-26T18:54:05.905Z,31.04
2018-07-26T18:56:32.910Z,30.93
2018-07-26T18:58:59.945Z,30.79
2018-07-26T19:01:26.968Z,30.70
2018-07-26T19:03:54.158Z,30.57
2018-07-26T19:06:21.174Z,30.47
2018-07-26T19:08:48.206Z,30.40
2018-07-26T19:11:15.188Z,30.30
2018-07-26T19:13:42.213Z,30.22
2018-07-26T19:16:09.293Z,30.11
2018-07-26T19:18:42.981Z,30.01
2018-07-26T19:21:10.037Z,29.91
2018-07-26T19:23:37.429Z,29.83
2018-07-26T19:26:04.729Z,29.77
2018-07-26T19:28:31.714Z,29.68
2018-07-26T19:30:58.873Z,29.60
2018-07-26T19:33:25.968Z,29.52
2018-07-26T19:35:52.954Z,29.45
2018-07-26T19:38:19.949Z,29.38
2018-07-26T19:40:46.989Z,29.30
2018-07-26T19:43:14.101Z,29.22
2018-07-26T19:45:41.282Z,29.16
2018-07-26T19:48:08.389Z,29.12
2018-07-26T19:50:35.360Z,29.07
2018-07-26T19:53:02.477Z,29.01
2018-07-26T19:55:29.888Z,28.96
2018-07-26T19:57:56.869Z,28.89
2018-07-26T20:00:24.561Z,28.83
2018-07-26T20:02:51.585Z,28.73
2018-07-26T20:05:18.621Z,28.71
2018-07-26T20:07:45.672Z,28.62
2018-07-26T20:10:12.989Z,28.60
2018-07-26T20:12:40.526Z,28.55
2018-07-26T20:15:07.892Z,28.50
2018-07-26T20:17:35.035Z,28.45
2018-07-26T20:20:02.265Z,28.41
2018-07-26T20:22:29.272Z,28.36
2018-07-26T20:24:56.305Z,28.33
2018-07-26T20:27:23.557Z,28.26
2018-07-26T20:29:50.605Z,28.22
2018-07-26T20:32:17.637Z,28.16
2018-07-26T20:34:44.857Z,28.14
2018-07-26T20:37:11.926Z,28.12
2018-07-26T20:39:39.044Z,28.06
2018-07-26T20:42:06.052Z,28.02
2018-07-26T20:44:33.042Z,27.97
2018-07-26T20:47:00.101Z,27.93
2018-07-26T20:49:27.093Z,27.90
2018-07-26T20:51:54.809Z,27.83
2018-07-26T20:54:21.973Z,27.80
2018-07-26T20:56:49.084Z,27.73
2018-07-26T20:59:16.065Z,27.72
2018-07-26T21:01:43.068Z,27.68
2018-07-26T21:04:10.049Z,27.64
2018-07-26T21:06:37.074Z,27.59
2018-07-26T21:09:07.393Z,27.53
2018-07-26T21:11:34.470Z,27.49
2018-07-26T21:14:01.422Z,27.47
2018-07-26T21:16:28.449Z,27.42
2018-07-26T21:18:55.477Z,27.39
2018-07-26T21:21:22.464Z,27.37
2018-07-26T21:23:49.484Z,27.32
2018-07-26T21:26:16.465Z,27.20
2018-07-26T21:28:43.473Z,27.22
2018-07-26T21:31:10.469Z,27.18
2018-07-26T21:33:37.593Z,27.17
2018-07-26T21:36:04.766Z,27.14
2018-07-26T21:38:31.874Z,27.11
2018-07-26T21:40:58.898Z,27.03
2018-07-26T21:43:25.885Z,27.03
2018-07-26T21:45:52.842Z,26.98
2018-07-26T21:48:20.106Z,26.95
2018-07-26T21:50:47.137Z,26.94
2018-07-26T21:53:14.113Z,26.91
2018-07-26T21:55:41.360Z,26.89
2018-07-26T21:58:08.329Z,26.85
2018-07-26T22:01:08.647Z,26.81
2018-07-26T22:03:35.679Z,26.76
2018-07-26T22:06:02.685Z,26.73
2018-07-26T22:08:29.892Z,26.70
2018-07-26T22:10:56.889Z,26.67
2018-07-26T22:13:23.863Z,26.61
2018-07-26T22:15:51.802Z,26.60
2018-07-26T22:18:18.978Z,26.58
2018-07-26T22:20:46.017Z,26.54
2018-07-26T22:23:13.018Z,26.50
2018-07-26T22:25:43.914Z,26.48
2018-07-26T22:28:10.929Z,26.45
2018-07-26T22:30:37.916Z,26.42
2018-07-26T22:33:04.890Z,26.39
2018-07-26T22:35:31.845Z,26.36
2018-07-26T22:37:58.840Z,26.31
2018-07-26T22:40:25.873Z,26.29
2018-07-26T22:42:52.929Z,26.25
2018-07-26T22:45:19.905Z,26.22
2018-07-26T22:47:46.860Z,26.19
2018-07-26T22:50:14.112Z,26.16
2018-07-26T22:52:41.207Z,26.13
2018-07-26T22:55:08.621Z,26.11
2018-07-26T22:57:35.597Z,26.11
2018-07-26T23:00:02.696Z,26.09
2018-07-26T23:02:29.709Z,26.06
2018-07-26T23:04:56.649Z,26.03
2018-07-26T23:07:23.712Z,26.00
2018-07-26T23:09:50.709Z,25.96
2018-07-26T23:12:17.673Z,25.93
2018-07-26T23:14:44.721Z,25.91
2018-07-26T23:17:12.389Z,25.84
2018-07-26T23:19:39.357Z,25.82
2018-07-26T23:22:06.364Z,25.81
2018-07-26T23:24:33.357Z,25.78
2018-07-26T23:27:00.698Z,25.76
2018-07-26T23:29:27.656Z,25.72
2018-07-26T23:31:54.681Z,25.68
2018-07-26T23:34:21.652Z,25.66
2018-07-26T23:36:48.628Z,25.62
2018-07-26T23:39:15.589Z,25.58
2018-07-26T23:41:42.552Z,25.55
2018-07-26T23:44:09.640Z,25.50
2018-07-26T23:46:36.953Z,25.46
2018-07-26T23:49:03.990Z,25.43
2018-07-26T23:51:31.161Z,25.38
2018-07-26T23:53:58.124Z,25.34
2018-07-26T23:56:25.137Z,25.30
2018-07-26T23:58:52.209Z,25.25
